METAR Data

Data at: 2221 UTC 01 Dec 2021

METAR for:KHYA (Hyannis/Barnstable M, MA, US)
Text:KHYA 012156Z 04003KT 10SM CLR 03/M02 A3012 RMK AO2 SLP202 T00281022
Temperature: 2.8°C ( 37°F)
Dewpoint: -2.2°C ( 28°F) [RH = 70%]
Pressure (altimeter):30.12 inches Hg (1020.1 mb) [Sea level pressure: 1020.2 mb]
Winds:from the NE (40 degrees) at 3 MPH (3 knots; 1.5 m/s)
Visibility:10 or more sm (16+ km)
Ceiling:at least 12,000 feet AGL
Clouds:sky clear below 12,000 feet AGL